createdAt,value
2019-05-10T00:01:53.913Z,94162.97
2019-05-10T00:06:47.269Z,94181.70
2019-05-10T00:09:13.911Z,94175.02
2019-05-10T00:11:40.592Z,94165.75
2019-05-10T00:14:07.258Z,94170.67
2019-05-10T00:16:33.900Z,94151.97
2019-05-10T00:19:00.590Z,94157.78
2019-05-10T00:21:27.225Z,94180.95
2019-05-10T00:23:53.862Z,94170.56
2019-05-10T00:26:20.533Z,94161.30
2019-05-10T00:28:47.216Z,94174.94
2019-05-10T00:31:13.846Z,94180.57
2019-05-10T00:33:40.493Z,94173.81
2019-05-10T00:36:07.155Z,94153.05
2019-05-10T00:38:35.149Z,94151.30
2019-05-10T00:41:00.449Z,94158.14
2019-05-10T00:43:27.127Z,94170.49
2019-05-10T00:45:53.772Z,94176.97
2019-05-10T00:48:20.433Z,94163.22
2019-05-10T00:50:47.105Z,94158.33
2019-05-10T00:53:13.742Z,94168.41
2019-05-10T00:55:40.411Z,94172.13
2019-05-10T00:58:07.046Z,94166.38
2019-05-10T01:00:33.690Z,94173.70
2019-05-10T01:03:00.378Z,94171.12
2019-05-10T01:05:27.013Z,94177.33
2019-05-10T01:07:53.769Z,94156.73
2019-05-10T01:10:20.414Z,94168.77
2019-05-10T01:12:47.056Z,94183.90
2019-05-10T01:15:13.735Z,94166.47
2019-05-10T01:17:40.387Z,94185.10
2019-05-10T01:20:07.097Z,94192.34
2019-05-10T01:22:33.734Z,94192.34
2019-05-10T01:27:27.106Z,94186.50
2019-05-10T01:29:53.760Z,94193.53
2019-05-10T01:32:20.411Z,94192.70
2019-05-10T01:34:47.073Z,94190.94
2019-05-10T01:37:13.735Z,94184.52
2019-05-10T01:39:40.418Z,94191.10
2019-05-10T01:42:07.128Z,94185.83
2019-05-10T01:44:33.774Z,94183.34
2019-05-10T01:47:00.446Z,94179.05
2019-05-10T01:49:27.131Z,94194.72
2019-05-10T01:51:53.837Z,94192.02
2019-05-10T01:54:20.459Z,94188.25
2019-05-10T01:56:47.121Z,94202.33
2019-05-10T02:01:40.618Z,94193.48
2019-05-10T02:04:07.298Z,94196.38
2019-05-10T02:06:33.984Z,94190.17
2019-05-10T02:09:00.581Z,94198.23
2019-05-10T02:11:27.220Z,94209.34
2019-05-10T02:13:53.909Z,94211.56
2019-05-10T02:16:20.554Z,94203.22
2019-05-10T02:18:47.318Z,94202.30
2019-05-10T02:21:13.971Z,94197.30
2019-05-10T02:23:40.645Z,94210.26
2019-05-10T02:26:09.743Z,94215.55
2019-05-10T02:28:33.961Z,94197.00
2019-05-10T02:31:00.653Z,94196.36
2019-05-10T02:33:27.529Z,94200.90
2019-05-10T02:35:54.179Z,94205.82
2019-05-10T02:38:20.872Z,94198.95
2019-05-10T02:40:47.546Z,94201.14
2019-05-10T02:43:14.190Z,94203.28
2019-05-10T02:45:40.816Z,94206.70
2019-05-10T02:48:07.520Z,94204.78
2019-05-10T02:50:34.159Z,94202.91
2019-05-10T02:53:00.934Z,94205.31
2019-05-10T02:55:27.507Z,94202.16
2019-05-10T02:57:54.152Z,94220.72
2019-05-10T03:00:20.839Z,94221.20
2019-05-10T03:02:47.487Z,94225.80
2019-05-10T03:05:14.188Z,94224.86
2019-05-10T03:07:40.843Z,94222.83
2019-05-10T03:10:07.533Z,94219.41
2019-05-10T03:12:34.205Z,94222.56
2019-05-10T03:15:00.854Z,94221.75
2019-05-10T03:17:27.517Z,94225.99
2019-05-10T03:22:20.839Z,94231.14
2019-05-10T03:24:47.498Z,94228.12
2019-05-10T03:27:14.177Z,94222.66
2019-05-10T03:29:40.858Z,94226.45
2019-05-10T03:32:07.533Z,94224.98
2019-05-10T03:34:34.184Z,94219.48
2019-05-10T03:37:00.857Z,94217.13
2019-05-10T03:39:27.495Z,94218.06
2019-05-10T03:41:54.142Z,94221.89
2019-05-10T03:44:20.836Z,94227.70
2019-05-10T03:46:47.484Z,94218.41
2019-05-10T03:49:14.180Z,94229.70
2019-05-10T03:51:40.776Z,94234.64
2019-05-10T03:54:07.427Z,94226.04
2019-05-10T03:56:34.066Z,94227.83
2019-05-10T03:59:00.770Z,94228.47
2019-05-10T04:01:27.412Z,94234.22
2019-05-10T04:03:54.074Z,94243.52
2019-05-10T04:06:20.782Z,94245.87
2019-05-10T04:08:47.427Z,94241.73
2019-05-10T04:11:14.158Z,94245.61
2019-05-10T04:13:40.909Z,94251.70
2019-05-10T04:16:07.442Z,94256.89
2019-05-10T04:18:34.131Z,94266.10
2019-05-10T04:21:00.772Z,94274.63
2019-05-10T04:23:27.462Z,94277.33
2019-05-10T04:25:54.062Z,94277.66
2019-05-10T04:28:20.749Z,94270.00
2019-05-10T04:30:47.392Z,94266.05
2019-05-10T04:33:14.103Z,94266.30
2019-05-10T04:35:40.736Z,94255.59
2019-05-10T04:38:07.388Z,94262.53
2019-05-10T04:40:34.124Z,94267.41
2019-05-10T04:43:00.717Z,94278.13
2019-05-10T04:45:27.357Z,94282.77
2019-05-10T04:47:54.004Z,94291.87
2019-05-10T04:50:20.661Z,94318.98
2019-05-10T04:52:47.362Z,94335.16
2019-05-10T04:55:14.000Z,94347.84
2019-05-10T04:57:50.040Z,94353.69
2019-05-10T05:00:07.358Z,94354.11
2019-05-10T05:05:00.631Z,94355.00
2019-05-10T05:07:27.273Z,94359.16
2019-05-10T05:09:53.929Z,94369.84
2019-05-10T05:12:20.577Z,94372.39
2019-05-10T05:14:47.222Z,94381.50
2019-05-10T05:17:13.876Z,94378.41
2019-05-10T05:19:41.087Z,94371.45
2019-05-10T05:22:07.210Z,94370.92
2019-05-10T05:24:33.862Z,94368.38
2019-05-10T05:27:00.573Z,94371.18
2019-05-10T05:29:27.220Z,94370.63
2019-05-10T05:32:00.793Z,94368.94
2019-05-10T05:34:20.526Z,94372.26
2019-05-10T05:36:47.171Z,94369.91
2019-05-10T05:39:13.796Z,94375.02
2019-05-10T05:41:47.794Z,94363.36
2019-05-10T05:44:07.158Z,94374.64
2019-05-10T05:46:33.818Z,94377.08
2019-05-10T05:49:00.456Z,94380.16
2019-05-10T05:51:27.137Z,94378.13
2019-05-10T05:53:53.830Z,94381.05
2019-05-10T05:56:20.423Z,94379.76
2019-05-10T05:58:47.254Z,94383.64
2019-05-10T06:01:24.830Z,94382.83
2019-05-10T06:03:40.375Z,94388.69
2019-05-10T06:06:15.474Z,94398.37
2019-05-10T06:08:33.748Z,94398.37
2019-05-10T06:11:00.442Z,94393.45
2019-05-10T06:13:30.488Z,94395.53
2019-05-10T06:15:53.821Z,94394.52
2019-05-10T06:18:20.467Z,94397.84
2019-05-10T06:20:47.161Z,94397.68
2019-05-10T06:23:13.804Z,94402.71
2019-05-10T06:25:42.760Z,94401.39
2019-05-10T06:28:25.236Z,94399.16
2019-05-10T06:30:34.003Z,94402.89
2019-05-10T06:33:09.519Z,94410.41
2019-05-10T06:35:27.365Z,94413.36
2019-05-10T06:37:54.006Z,94401.88
2019-05-10T06:40:33.457Z,94402.71
2019-05-10T06:42:47.412Z,94405.87
2019-05-10T06:45:16.089Z,94413.66
2019-05-10T06:47:42.131Z,94414.21
2019-05-10T06:50:07.387Z,94412.93
2019-05-10T06:52:34.086Z,94408.22
2019-05-10T06:55:00.736Z,94410.14
2019-05-10T06:57:27.409Z,94416.41
2019-05-10T06:59:57.119Z,94417.09
2019-05-10T07:02:26.791Z,94419.48
2019-05-10T07:04:47.446Z,94406.61
2019-05-10T07:07:22.396Z,94416.81
2019-05-10T07:10:01.533Z,94424.59
2019-05-10T07:12:09.260Z,94420.34
2019-05-10T07:14:34.161Z,94427.84
2019-05-10T07:17:02.568Z,94430.80
2019-05-10T07:19:28.864Z,94431.61
2019-05-10T07:24:24.916Z,94429.25
2019-05-10T07:26:47.554Z,94431.28
2019-05-10T07:29:29.127Z,94429.89
2019-05-10T07:31:41.347Z,94427.70
2019-05-10T07:34:09.814Z,94431.79
2019-05-10T07:36:34.294Z,94435.02
2019-05-10T07:39:02.732Z,94430.59
2019-05-10T07:41:29.159Z,94433.81
2019-05-10T07:46:20.905Z,94440.09
2019-05-10T07:48:53.430Z,94444.48
2019-05-10T07:51:14.214Z,94438.17
2019-05-10T07:53:40.893Z,94440.46
2019-05-10T07:56:07.994Z,94442.52
2019-05-10T07:58:38.289Z,94447.38
2019-05-10T08:01:03.570Z,94445.89
2019-05-10T08:03:30.256Z,94440.15
2019-05-10T08:05:59.876Z,94441.66
2019-05-10T08:08:23.566Z,94449.55
2019-05-10T08:10:50.212Z,94454.27
2019-05-10T08:13:23.345Z,94446.08
2019-05-10T08:15:43.971Z,94460.63
2019-05-10T08:18:10.678Z,94470.91
2019-05-10T08:20:49.549Z,94465.49
2019-05-10T08:23:04.035Z,94468.23
2019-05-10T08:25:36.414Z,94475.11
2019-05-10T08:27:57.379Z,94475.75
2019-05-10T08:30:28.959Z,94472.60
2019-05-10T08:32:52.603Z,94476.56
2019-05-10T08:35:18.893Z,94481.94
2019-05-10T08:37:44.330Z,94478.49
2019-05-10T08:40:12.778Z,94473.95
2019-05-10T08:42:45.483Z,94481.72
2019-05-10T08:45:08.627Z,94481.14
2019-05-10T08:47:32.307Z,94486.83
2019-05-10T08:50:11.922Z,94483.67
2019-05-10T08:52:30.877Z,94488.75
2019-05-10T08:54:54.888Z,94490.37
2019-05-10T08:57:18.743Z,94492.00
2019-05-10T08:59:44.408Z,94493.45
2019-05-10T09:02:12.838Z,94500.08
2019-05-10T09:04:43.657Z,94501.75
2019-05-10T09:07:04.417Z,94493.23
2019-05-10T09:09:35.829Z,94499.64
2019-05-10T09:14:24.603Z,94500.17
2019-05-10T09:17:00.838Z,94496.08
2019-05-10T09:19:18.973Z,94497.37
2019-05-10T09:21:49.686Z,94494.32
2019-05-10T09:24:12.794Z,94495.70
2019-05-10T09:26:37.978Z,94494.78
2019-05-10T09:29:04.676Z,94497.44
2019-05-10T09:33:57.978Z,94495.08
2019-05-10T09:36:31.308Z,94500.17
2019-05-10T09:38:52.696Z,94489.84
2019-05-10T09:41:18.066Z,94500.42
2019-05-10T09:43:48.898Z,94495.41
2019-05-10T09:46:11.459Z,94491.91
2019-05-10T09:48:38.044Z,94494.39
2019-05-10T09:51:04.713Z,94492.13
2019-05-10T09:53:31.347Z,94487.23
2019-05-10T09:56:02.501Z,94486.77
2019-05-10T09:58:24.697Z,94487.62
2019-05-10T10:00:51.400Z,94487.53
2019-05-10T10:03:18.133Z,94487.33
2019-05-10T10:05:44.760Z,94495.53
2019-05-10T10:08:11.409Z,94491.73
2019-05-10T10:10:38.064Z,94493.22
2019-05-10T10:13:08.435Z,94494.69
2019-05-10T10:15:34.218Z,94492.28
2019-05-10T10:17:58.350Z,94497.39
2019-05-10T10:20:24.704Z,94489.78
2019-05-10T10:22:54.410Z,94493.58
2019-05-10T10:25:18.077Z,94494.23
2019-05-10T10:27:44.743Z,94490.63
2019-05-10T10:30:17.755Z,94493.41
2019-05-10T10:32:38.125Z,94490.36
2019-05-10T10:35:07.572Z,94492.03
2019-05-10T10:37:31.505Z,94491.65
2019-05-10T10:40:00.609Z,94498.91
2019-05-10T10:42:24.722Z,94492.77
2019-05-10T10:44:51.415Z,94499.35
2019-05-10T10:47:18.067Z,94496.20
2019-05-10T10:49:44.714Z,94491.55
2019-05-10T10:52:13.502Z,94502.98
2019-05-10T10:54:39.880Z,94504.39
2019-05-10T10:57:04.691Z,94512.02
2019-05-10T10:59:31.343Z,94507.75
2019-05-10T11:02:27.497Z,94517.53
2019-05-10T11:04:24.759Z,94513.41
2019-05-10T11:07:08.802Z,94520.50
2019-05-10T11:09:20.543Z,94517.42
2019-05-10T11:11:44.974Z,94515.77
2019-05-10T11:14:11.425Z,94521.25
2019-05-10T11:16:38.084Z,94522.17
2019-05-10T11:19:13.225Z,94521.99
2019-05-10T11:21:33.411Z,94520.86
2019-05-10T11:23:58.083Z,94526.25
2019-05-10T11:26:26.713Z,94518.18
2019-05-10T11:28:51.514Z,94527.58
2019-05-10T11:31:37.069Z,94517.88
2019-05-10T11:34:06.091Z,94533.98
2019-05-10T11:36:31.228Z,94545.25
2019-05-10T11:38:58.714Z,94533.34
2019-05-10T11:41:24.609Z,94527.58
2019-05-10T11:46:16.967Z,94525.64
2019-05-10T11:48:43.627Z,94531.56
2019-05-10T11:51:12.337Z,94520.59
2019-05-10T11:53:37.210Z,94517.91
2019-05-10T11:56:07.910Z,94524.98
2019-05-10T11:58:31.165Z,94520.42
2019-05-10T12:01:02.374Z,94521.72
2019-05-10T12:03:23.857Z,94512.87
2019-05-10T12:05:56.482Z,94519.85
2019-05-10T12:08:17.153Z,94522.37
2019-05-10T12:10:52.867Z,94525.73
2019-05-10T12:13:18.633Z,94522.37
2019-05-10T12:15:37.213Z,94525.91
2019-05-10T12:18:04.992Z,94532.25
2019-05-10T12:20:41.285Z,94526.45
2019-05-10T12:22:57.214Z,94521.89
2019-05-10T12:25:42.525Z,94526.94
2019-05-10T12:27:52.292Z,94523.86
2019-05-10T12:30:17.192Z,94514.64
2019-05-10T12:32:55.723Z,94524.51
2019-05-10T12:35:11.720Z,94519.47
2019-05-10T12:37:39.406Z,94515.91
2019-05-10T12:40:09.808Z,94508.67
2019-05-10T12:42:31.633Z,94506.98
2019-05-10T12:44:57.276Z,94504.19
2019-05-10T12:47:23.990Z,94502.91
2019-05-10T12:49:53.871Z,94496.38
2019-05-10T12:52:17.357Z,94502.86
2019-05-10T12:54:44.032Z,94495.98
2019-05-10T12:57:10.684Z,94507.79
2019-05-10T12:59:37.653Z,94501.16
2019-05-10T13:02:10.540Z,94497.91
2019-05-10T13:04:40.184Z,94503.70
2019-05-10T13:06:57.617Z,94510.59
2019-05-10T13:09:38.101Z,94506.92
2019-05-10T13:11:51.039Z,94509.02
2019-05-10T13:14:17.688Z,94504.56
2019-05-10T13:16:44.335Z,94520.45
2019-05-10T13:19:14.091Z,94516.76
2019-05-10T13:21:37.686Z,94523.04
2019-05-10T13:24:04.415Z,94524.55
2019-05-10T13:26:31.070Z,94522.12
2019-05-10T13:31:24.410Z,94529.00
2019-05-10T13:33:51.067Z,94526.77
2019-05-10T13:36:17.755Z,94535.42
2019-05-10T13:38:49.015Z,94532.96
2019-05-10T13:41:11.138Z,94529.90
2019-05-10T13:43:37.777Z,94527.58
2019-05-10T13:46:04.478Z,94531.39
2019-05-10T13:48:31.125Z,94542.13
2019-05-10T13:50:57.823Z,94535.31
2019-05-10T13:53:24.496Z,94537.80
2019-05-10T13:55:51.231Z,94531.88
2019-05-10T13:58:17.883Z,94532.42
2019-05-10T14:00:44.551Z,94534.02
2019-05-10T14:03:13.423Z,94535.11
2019-05-10T14:05:40.199Z,94532.52
2019-05-10T14:08:04.670Z,94542.84
2019-05-10T14:10:31.314Z,94548.80
2019-05-10T14:13:02.435Z,94550.67
2019-05-10T14:15:24.683Z,94547.88
2019-05-10T14:17:51.329Z,94546.11
2019-05-10T14:20:25.111Z,94542.40
2019-05-10T14:22:48.540Z,94550.30
2019-05-10T14:27:38.573Z,94559.59
2019-05-10T14:30:07.344Z,94558.20
2019-05-10T14:32:31.448Z,94563.34
2019-05-10T14:34:58.052Z,94560.35
2019-05-10T14:37:24.760Z,94558.51
2019-05-10T14:39:52.972Z,94549.34
2019-05-10T14:42:23.850Z,94558.98
2019-05-10T14:44:44.775Z,94551.86
2019-05-10T14:47:11.447Z,94559.69
2019-05-10T14:49:42.002Z,94560.13
2019-05-10T14:52:04.885Z,94562.93
2019-05-10T14:54:43.261Z,94553.91
2019-05-10T14:56:58.251Z,94562.59
2019-05-10T14:59:24.942Z,94561.25
2019-05-10T15:01:51.561Z,94552.06
2019-05-10T15:04:43.959Z,94548.31
2019-05-10T15:06:44.874Z,94557.72
2019-05-10T15:09:20.941Z,94554.09
2019-05-10T15:11:38.216Z,94552.42
2019-05-10T15:14:04.918Z,94557.71
2019-05-10T15:16:31.583Z,94551.30
2019-05-10T15:18:58.257Z,94549.64
2019-05-10T15:21:24.905Z,94550.18
2019-05-10T15:23:55.209Z,94551.03
2019-05-10T15:26:18.349Z,94557.33
2019-05-10T15:28:45.055Z,94551.75
2019-05-10T15:31:11.722Z,94556.30
2019-05-10T15:33:38.431Z,94546.53
2019-05-10T15:36:05.170Z,94551.84
2019-05-10T15:38:31.981Z,94549.14
2019-05-10T15:40:58.622Z,94547.95
2019-05-10T15:43:25.259Z,94549.41
2019-05-10T15:45:52.852Z,94551.00
2019-05-10T15:48:18.612Z,94542.42
2019-05-10T15:50:45.305Z,94550.62
2019-05-10T15:53:11.968Z,94543.91
2019-05-10T15:58:07.951Z,94542.61
2019-05-10T16:00:39.194Z,94541.59
2019-05-10T16:03:01.296Z,94531.72
2019-05-10T16:05:42.486Z,94539.72
2019-05-10T16:07:54.639Z,94540.29
2019-05-10T16:10:21.278Z,94540.73
2019-05-10T16:12:47.927Z,94544.91
2019-05-10T16:15:19.853Z,94546.14
2019-05-10T16:17:41.238Z,94556.38
2019-05-10T16:20:07.895Z,94551.72
2019-05-10T16:22:34.544Z,94555.25
2019-05-10T16:25:02.743Z,94557.94
2019-05-10T16:27:27.891Z,94554.03
2019-05-10T16:29:54.543Z,94555.42
2019-05-10T16:32:21.231Z,94558.68
2019-05-10T16:34:47.892Z,94554.48
2019-05-10T16:37:14.521Z,94558.19
2019-05-10T16:39:41.215Z,94548.34
2019-05-10T16:42:07.873Z,94558.77
2019-05-10T16:44:34.526Z,94561.92
2019-05-10T16:47:01.171Z,94562.66
2019-05-10T16:49:27.860Z,94565.73
2019-05-10T16:51:54.504Z,94561.16
2019-05-10T16:54:25.224Z,94561.80
2019-05-10T16:56:51.562Z,94560.30
2019-05-10T17:01:41.131Z,94563.25
2019-05-10T17:04:07.802Z,94568.92
2019-05-10T17:06:35.495Z,94573.86
2019-05-10T17:09:01.118Z,94573.57
2019-05-10T17:11:27.816Z,94573.92
2019-05-10T17:13:55.712Z,94570.78
2019-05-10T17:16:21.277Z,94576.63
2019-05-10T17:18:49.920Z,94578.94
2019-05-10T17:21:14.592Z,94585.91
2019-05-10T17:23:46.226Z,94586.19
2019-05-10T17:26:07.978Z,94590.73
2019-05-10T17:28:35.271Z,94596.95
2019-05-10T17:31:07.802Z,94595.86
2019-05-10T17:33:27.994Z,94600.68
2019-05-10T17:36:07.504Z,94603.64
2019-05-10T17:38:21.299Z,94600.77
2019-05-10T17:40:50.001Z,94606.34
2019-05-10T17:43:20.814Z,94611.34
2019-05-10T17:45:42.431Z,94614.05
2019-05-10T17:48:08.556Z,94611.45
2019-05-10T17:50:34.651Z,94617.94
2019-05-10T17:53:01.286Z,94610.03
2019-05-10T17:55:28.049Z,94622.58
2019-05-10T17:57:56.533Z,94621.38
2019-05-10T18:00:21.274Z,94623.04
2019-05-10T18:02:47.915Z,94634.46
2019-05-10T18:05:14.593Z,94629.98
2019-05-10T18:07:41.239Z,94635.09
2019-05-10T18:10:07.989Z,94638.81
2019-05-10T18:12:34.584Z,94630.08
2019-05-10T18:15:04.450Z,94629.13
2019-05-10T18:17:27.930Z,94637.42
2019-05-10T18:19:56.654Z,94639.73
2019-05-10T18:22:21.221Z,94642.16
2019-05-10T18:27:14.508Z,94644.49
2019-05-10T18:29:41.194Z,94647.72
2019-05-10T18:32:10.960Z,94643.34
2019-05-10T18:34:35.423Z,94644.74
2019-05-10T18:37:01.170Z,94649.56
2019-05-10T18:39:27.781Z,94658.09
2019-05-10T18:41:54.432Z,94655.20
2019-05-10T18:44:21.090Z,94658.82
2019-05-10T18:46:47.758Z,94661.34
2019-05-10T18:49:14.442Z,94662.25
2019-05-10T18:51:41.116Z,94664.59
2019-05-10T18:54:07.759Z,94672.27
2019-05-10T18:56:34.402Z,94675.73
2019-05-10T18:59:06.785Z,94671.09
2019-05-10T19:01:32.865Z,94685.12
2019-05-10T19:03:54.455Z,94675.89
2019-05-10T19:06:21.099Z,94678.77
2019-05-10T19:11:14.794Z,94692.70
2019-05-10T19:13:47.950Z,94690.48
2019-05-10T19:16:07.802Z,94690.67
2019-05-10T19:21:01.120Z,94693.08
2019-05-10T19:23:27.801Z,94697.37
2019-05-10T19:25:54.441Z,94695.09
2019-05-10T19:28:26.606Z,94695.35
2019-05-10T19:30:52.799Z,94695.35
2019-05-10T19:33:14.552Z,94693.59
2019-05-10T19:35:41.156Z,94693.20
2019-05-10T19:38:07.789Z,94696.56
2019-05-10T19:40:34.476Z,94703.16
2019-05-10T19:43:01.124Z,94704.66
2019-05-10T19:45:30.969Z,94707.22
2019-05-10T19:47:55.553Z,94707.12
2019-05-10T19:50:24.296Z,94709.15
2019-05-10T19:52:47.865Z,94707.65
2019-05-10T19:55:19.278Z,94715.82
2019-05-10T19:57:41.160Z,94717.40
2019-05-10T20:02:34.466Z,94717.26
2019-05-10T20:05:01.121Z,94716.94
2019-05-10T20:07:43.139Z,94715.16
2019-05-10T20:09:54.416Z,94716.37
2019-05-10T20:12:21.113Z,94712.98
2019-05-10T20:14:47.821Z,94717.35
2019-05-10T20:17:14.540Z,94716.94
2019-05-10T20:19:41.161Z,94718.26
2019-05-10T20:22:07.797Z,94723.23
2019-05-10T20:24:34.490Z,94730.68
2019-05-10T20:27:01.144Z,94724.63
2019-05-10T20:29:27.792Z,94726.84
2019-05-10T20:31:54.424Z,94731.28
2019-05-10T20:34:24.059Z,94732.75
2019-05-10T20:36:47.722Z,94730.23
2019-05-10T20:39:14.411Z,94733.17
2019-05-10T20:41:41.055Z,94731.86
2019-05-10T20:44:07.713Z,94737.91
2019-05-10T20:46:34.356Z,94732.94
2019-05-10T20:49:01.059Z,94733.47
2019-05-10T20:51:27.711Z,94737.72
2019-05-10T20:53:54.436Z,94743.03
2019-05-10T20:56:21.076Z,94740.78
2019-05-10T20:58:47.760Z,94741.97
2019-05-10T21:01:14.393Z,94741.59
2019-05-10T21:03:41.093Z,94747.55
2019-05-10T21:06:07.738Z,94747.17
2019-05-10T21:08:34.403Z,94746.41
2019-05-10T21:11:01.092Z,94744.72
2019-05-10T21:13:27.741Z,94748.22
2019-05-10T21:15:54.384Z,94746.45
2019-05-10T21:18:21.047Z,94745.05
2019-05-10T21:20:47.790Z,94749.67
2019-05-10T21:23:14.474Z,94758.30
2019-05-10T21:25:41.171Z,94762.78
2019-05-10T21:28:07.861Z,94769.74
2019-05-10T21:30:34.507Z,94763.48
2019-05-10T21:33:01.180Z,94767.47
2019-05-10T21:35:27.829Z,94762.92
2019-05-10T21:37:54.464Z,94768.27
2019-05-10T21:40:21.120Z,94770.78
2019-05-10T21:42:47.762Z,94773.37
2019-05-10T21:45:14.458Z,94771.21
2019-05-10T21:47:51.127Z,94772.63
2019-05-10T21:50:07.836Z,94762.66
2019-05-10T21:52:34.478Z,94768.80
2019-05-10T21:57:27.796Z,94770.62
2019-05-10T21:59:54.433Z,94777.75
2019-05-10T22:02:21.077Z,94782.70
2019-05-10T22:04:48.243Z,94780.03
2019-05-10T22:07:15.362Z,94783.08
2019-05-10T22:09:42.082Z,94781.42
2019-05-10T22:12:08.719Z,94788.56
2019-05-10T22:14:35.443Z,94787.89
2019-05-10T22:17:02.063Z,94785.29
2019-05-10T22:19:28.755Z,94785.29
2019-05-10T22:21:55.612Z,94789.04
2019-05-10T22:24:22.087Z,94785.44
2019-05-10T22:26:48.726Z,94780.63
2019-05-10T22:29:15.363Z,94779.23
2019-05-10T22:31:42.073Z,94783.09
2019-05-10T22:34:08.719Z,94788.77
2019-05-10T22:36:35.410Z,94781.88
2019-05-10T22:39:07.081Z,94782.41
2019-05-10T22:41:28.717Z,94788.50
2019-05-10T22:43:55.405Z,94778.03
2019-05-10T22:46:22.062Z,94784.99
2019-05-10T22:48:48.729Z,94791.08
2019-05-10T22:51:15.380Z,94794.23
2019-05-10T22:53:42.069Z,94798.04
2019-05-10T22:56:08.719Z,94801.84
2019-05-10T22:58:35.397Z,94800.66
2019-05-10T23:01:02.136Z,94796.22
2019-05-10T23:05:55.439Z,94803.62
2019-05-10T23:08:22.157Z,94802.66
2019-05-10T23:10:48.803Z,94801.41
2019-05-10T23:13:15.443Z,94802.27
2019-05-10T23:15:42.159Z,94800.45
2019-05-10T23:18:08.803Z,94798.05
2019-05-10T23:20:35.466Z,94800.34
2019-05-10T23:23:02.129Z,94807.94
2019-05-10T23:25:28.790Z,94801.91
2019-05-10T23:27:55.436Z,94801.59
2019-05-10T23:30:22.117Z,94804.38
2019-05-10T23:32:48.759Z,94801.11
2019-05-10T23:35:15.416Z,94802.13
2019-05-10T23:37:42.073Z,94809.28
2019-05-10T23:40:08.713Z,94808.32
2019-05-10T23:42:35.422Z,94809.52
2019-05-10T23:45:02.084Z,94810.41
2019-05-10T23:47:28.747Z,94814.39
2019-05-10T23:49:55.385Z,94808.18
2019-05-10T23:52:22.070Z,94806.56
2019-05-10T23:54:48.766Z,94806.56
2019-05-10T23:57:15.447Z,94816.67
2019-05-10T23:59:42.089Z,94820.47
